createdAt,value
2019-02-17T00:03:37.946Z,2.00
2019-02-17T00:07:43.385Z,2.00
2019-02-17T00:11:49.039Z,2.00
2019-02-17T00:15:54.557Z,2.10
2019-02-17T00:20:03.005Z,2.00
2019-02-17T00:24:08.408Z,2.00
2019-02-17T00:28:14.086Z,2.00
2019-02-17T00:32:19.515Z,2.00
2019-02-17T00:36:25.181Z,1.90
2019-02-17T00:40:30.660Z,1.90
2019-02-17T00:44:35.860Z,1.90
2019-02-17T00:48:41.247Z,2.00
2019-02-17T00:52:46.891Z,1.90
2019-02-17T00:56:52.513Z,1.90
2019-02-17T01:00:57.931Z,1.90
2019-02-17T01:05:03.378Z,1.80
2019-02-17T01:09:09.139Z,1.80
2019-02-17T01:13:14.626Z,1.90
2019-02-17T01:17:20.006Z,1.80
2019-02-17T01:21:25.399Z,1.80
2019-02-17T01:25:30.649Z,1.80
2019-02-17T01:29:36.064Z,1.80
2019-02-17T01:33:41.426Z,1.80
2019-02-17T01:37:46.857Z,1.70
2019-02-17T01:41:52.242Z,1.70
2019-02-17T01:45:58.098Z,1.70
2019-02-17T01:50:03.503Z,1.70
2019-02-17T01:54:08.955Z,1.60
2019-02-17T01:58:14.306Z,1.70
2019-02-17T02:02:19.659Z,1.70
2019-02-17T02:06:25.095Z,1.70
2019-02-17T02:10:30.478Z,1.60
2019-02-17T02:14:36.184Z,1.60
2019-02-17T02:18:41.520Z,1.60
2019-02-17T02:22:46.966Z,1.50
2019-02-17T02:26:52.376Z,1.70
2019-02-17T02:30:57.811Z,1.80
2019-02-17T02:35:03.239Z,1.80
2019-02-17T02:39:09.161Z,1.70
2019-02-17T02:43:14.861Z,1.70
2019-02-17T02:47:20.573Z,1.60
2019-02-17T02:51:25.972Z,1.50
2019-02-17T02:55:31.245Z,1.40
2019-02-17T02:59:36.934Z,1.40
2019-02-17T03:03:42.750Z,1.30
2019-02-17T03:07:48.087Z,1.30
2019-02-17T03:11:53.597Z,1.30
2019-02-17T03:15:58.982Z,1.30
2019-02-17T03:20:04.746Z,1.20
2019-02-17T03:24:10.180Z,1.10
2019-02-17T03:28:15.568Z,1.10
2019-02-17T03:32:20.927Z,1.10
2019-02-17T03:36:26.261Z,1.00
2019-02-17T03:40:31.680Z,1.00
2019-02-17T03:44:36.981Z,1.00
2019-02-17T03:48:42.362Z,0.90
2019-02-17T03:52:47.707Z,0.90
2019-02-17T03:56:53.166Z,0.90
2019-02-17T04:00:58.905Z,0.90
2019-02-17T04:05:04.476Z,1.00
2019-02-17T04:09:10.327Z,1.10
2019-02-17T04:13:16.157Z,1.20
2019-02-17T04:17:21.865Z,1.40
2019-02-17T04:21:27.381Z,1.70
2019-02-17T04:25:32.806Z,1.80
2019-02-17T04:29:38.161Z,1.90
2019-02-17T04:33:43.615Z,2.00
2019-02-17T04:37:48.950Z,1.80
2019-02-17T04:41:54.403Z,1.90
2019-02-17T04:46:00.155Z,2.00
2019-02-17T04:50:06.052Z,2.10
2019-02-17T04:54:11.488Z,2.10
2019-02-17T04:58:16.931Z,2.50
2019-02-17T05:02:22.282Z,2.80
2019-02-17T05:06:27.737Z,2.90
2019-02-17T05:10:33.164Z,2.90
2019-02-17T05:14:38.960Z,2.90
2019-02-17T05:18:44.383Z,2.80
2019-02-17T05:22:50.409Z,2.80
2019-02-17T05:26:55.730Z,2.70
2019-02-17T05:31:01.389Z,2.70
2019-02-17T05:35:07.162Z,2.60
2019-02-17T05:39:12.512Z,2.70
2019-02-17T05:43:17.988Z,2.70
2019-02-17T05:47:23.530Z,2.90
2019-02-17T05:51:28.945Z,2.90
2019-02-17T05:55:34.647Z,3.00
2019-02-17T05:59:40.023Z,3.10
2019-02-17T06:03:45.367Z,3.10
2019-02-17T06:07:50.862Z,3.30
2019-02-17T06:11:56.142Z,3.10
2019-02-17T06:16:01.615Z,3.30
2019-02-17T06:20:07.663Z,3.30
2019-02-17T06:24:13.044Z,3.20
2019-02-17T06:28:18.398Z,3.40
2019-02-17T06:32:24.028Z,3.40
2019-02-17T06:36:29.375Z,3.40
2019-02-17T06:40:34.830Z,3.70
2019-02-17T06:44:40.249Z,3.70
2019-02-17T06:48:46.089Z,3.80
2019-02-17T06:52:51.566Z,3.70
2019-02-17T06:57:09.146Z,3.60
2019-02-17T07:01:24.123Z,3.80
2019-02-17T07:05:33.370Z,4.00
2019-02-17T07:09:38.730Z,4.20
2019-02-17T07:13:43.923Z,4.20
2019-02-17T07:17:50.021Z,4.30
2019-02-17T07:21:55.634Z,4.50
2019-02-17T07:26:01.120Z,4.30
2019-02-17T07:30:06.707Z,4.50
2019-02-17T07:34:12.307Z,4.50
2019-02-17T07:38:17.988Z,4.60
2019-02-17T07:42:23.352Z,4.70
2019-02-17T07:46:29.112Z,4.80
2019-02-17T07:50:34.620Z,4.80
2019-02-17T07:54:40.033Z,5.00
2019-02-17T07:58:45.677Z,5.20
2019-02-17T08:02:51.212Z,5.40
2019-02-17T08:06:57.251Z,5.70
2019-02-17T08:11:04.272Z,5.90
2019-02-17T08:15:10.508Z,6.00
2019-02-17T08:19:15.912Z,6.30
2019-02-17T08:23:21.328Z,6.40
2019-02-17T08:27:27.135Z,6.50
2019-02-17T08:31:32.575Z,6.50
2019-02-17T08:35:38.301Z,6.50
2019-02-17T08:39:43.587Z,6.60
2019-02-17T08:43:49.439Z,6.70
2019-02-17T08:47:55.034Z,7.00
2019-02-17T08:52:00.957Z,7.10
2019-02-17T08:56:06.340Z,7.30
2019-02-17T09:00:13.147Z,7.30
2019-02-17T09:04:18.490Z,7.40
2019-02-17T09:08:23.936Z,7.60
2019-02-17T09:12:29.117Z,7.70
2019-02-17T09:16:34.477Z,7.80
2019-02-17T09:20:39.871Z,7.90
2019-02-17T09:24:45.479Z,8.20
2019-02-17T09:28:50.823Z,8.20
2019-02-17T09:32:56.287Z,8.20
2019-02-17T09:37:01.729Z,8.40
2019-02-17T09:41:07.003Z,8.60
2019-02-17T09:45:13.948Z,8.70
2019-02-17T09:49:19.734Z,8.90
2019-02-17T09:53:25.079Z,8.90
2019-02-17T09:57:30.503Z,9.00
2019-02-17T10:01:35.920Z,9.30
2019-02-17T10:05:41.351Z,9.40
2019-02-17T10:09:46.901Z,9.50
2019-02-17T10:13:52.401Z,9.70
2019-02-17T10:17:57.701Z,9.70
2019-02-17T10:22:03.123Z,10.10
2019-02-17T10:26:08.574Z,10.10
2019-02-17T10:30:14.904Z,10.30
2019-02-17T10:34:20.275Z,10.50
2019-02-17T10:38:25.932Z,10.70
2019-02-17T10:42:31.394Z,10.90
2019-02-17T10:46:36.903Z,10.90
2019-02-17T10:50:42.473Z,11.10
2019-02-17T10:54:47.942Z,11.40
2019-02-17T10:58:53.393Z,11.70
2019-02-17T11:03:07.128Z,11.60
2019-02-17T11:07:12.640Z,11.90
2019-02-17T11:11:17.930Z,11.80
2019-02-17T11:15:23.334Z,12.20
2019-02-17T11:19:28.774Z,12.20
2019-02-17T11:23:34.131Z,12.50
2019-02-17T11:27:39.698Z,12.30
2019-02-17T11:31:45.371Z,12.50
2019-02-17T11:35:51.324Z,12.80
2019-02-17T11:39:56.677Z,12.80
2019-02-17T11:44:02.358Z,13.10
2019-02-17T11:48:07.647Z,13.20
2019-02-17T11:52:12.888Z,13.30
2019-02-17T11:56:18.310Z,13.40
2019-02-17T12:00:23.877Z,13.70
2019-02-17T12:04:29.160Z,13.70
2019-02-17T12:08:34.580Z,13.70
2019-02-17T12:12:40.345Z,14.00
2019-02-17T12:16:45.887Z,14.10
2019-02-17T12:21:15.216Z,14.30
2019-02-17T12:25:31.986Z,14.70
2019-02-17T12:29:43.357Z,15.00
2019-02-17T12:33:48.669Z,15.30
2019-02-17T12:37:54.118Z,15.40
2019-02-17T12:41:59.561Z,16.00
2019-02-17T12:46:05.416Z,16.00
2019-02-17T12:50:12.327Z,16.30
2019-02-17T12:54:28.641Z,16.70
2019-02-17T12:58:29.885Z,16.90
2019-02-17T13:02:32.622Z,17.50
2019-02-17T13:06:38.286Z,17.90
2019-02-17T13:10:44.035Z,17.80
2019-02-17T13:14:49.417Z,18.20
2019-02-17T13:18:54.881Z,17.30
2019-02-17T13:23:00.524Z,17.80
2019-02-17T13:27:06.131Z,18.10
2019-02-17T13:31:11.630Z,18.40
2019-02-17T13:35:17.413Z,17.70
2019-02-17T13:39:22.888Z,17.30
2019-02-17T13:43:28.320Z,16.90
2019-02-17T13:47:33.683Z,16.80
2019-02-17T13:51:39.372Z,17.10
2019-02-17T13:55:45.213Z,16.70
2019-02-17T13:59:50.770Z,16.50
2019-02-17T14:03:56.080Z,16.50
2019-02-17T14:08:01.574Z,16.30
2019-02-17T14:12:07.161Z,16.30
2019-02-17T14:16:12.564Z,16.30
2019-02-17T14:20:18.280Z,16.30
2019-02-17T14:24:23.990Z,16.50
2019-02-17T14:28:29.455Z,16.40
2019-02-17T14:32:35.175Z,16.20
2019-02-17T14:36:40.467Z,16.30
2019-02-17T14:40:46.485Z,16.00
2019-02-17T14:44:51.834Z,15.90
2019-02-17T14:48:57.196Z,16.00
2019-02-17T14:53:02.646Z,16.40
2019-02-17T14:57:08.028Z,16.70
2019-02-17T15:01:13.461Z,17.20
2019-02-17T15:05:19.300Z,17.70
2019-02-17T15:09:24.653Z,17.90
2019-02-17T15:13:30.304Z,18.00
2019-02-17T15:17:38.133Z,18.30
2019-02-17T15:21:43.729Z,18.30
2019-02-17T15:25:49.351Z,18.10
2019-02-17T15:29:54.835Z,18.10
2019-02-17T15:34:00.207Z,18.10
2019-02-17T15:38:05.730Z,18.60
2019-02-17T15:42:11.496Z,18.40
2019-02-17T15:46:17.040Z,18.50
2019-02-17T15:50:23.250Z,18.40
2019-02-17T15:54:28.751Z,17.90
2019-02-17T15:58:34.185Z,17.80
2019-02-17T16:02:39.509Z,17.50
2019-02-17T16:06:44.967Z,16.90
2019-02-17T16:10:50.378Z,16.50
2019-02-17T16:14:55.780Z,16.00
2019-02-17T16:19:01.116Z,15.70
2019-02-17T16:23:06.571Z,15.30
2019-02-17T16:27:12.346Z,15.10
2019-02-17T16:31:17.752Z,14.80
2019-02-17T16:35:23.159Z,14.40
2019-02-17T16:39:28.512Z,14.20
2019-02-17T16:43:34.324Z,13.80
2019-02-17T16:47:40.015Z,13.70
2019-02-17T16:51:45.777Z,13.60
2019-02-17T16:55:51.193Z,13.40
2019-02-17T16:59:56.787Z,13.40
2019-02-17T17:04:02.281Z,13.30
2019-02-17T17:08:07.688Z,13.20
2019-02-17T17:12:12.975Z,12.90
2019-02-17T17:16:18.579Z,12.90
2019-02-17T17:20:24.030Z,12.70
2019-02-17T17:24:29.672Z,12.50
2019-02-17T17:28:35.218Z,12.50
2019-02-17T17:32:40.600Z,12.40
2019-02-17T17:36:46.036Z,12.40
2019-02-17T17:40:51.974Z,12.20
2019-02-17T17:44:57.819Z,12.20
2019-02-17T17:49:03.519Z,12.00
2019-02-17T17:53:08.975Z,12.00
2019-02-17T17:57:14.440Z,12.00
2019-02-17T18:01:20.167Z,12.00
2019-02-17T18:05:25.583Z,11.70
2019-02-17T18:09:31.029Z,11.40
2019-02-17T18:13:36.827Z,11.10
2019-02-17T18:17:43.081Z,11.10
2019-02-17T18:21:48.757Z,10.80
2019-02-17T18:25:54.485Z,10.60
2019-02-17T18:29:59.889Z,10.30
2019-02-17T18:34:05.762Z,10.10
2019-02-17T18:38:11.215Z,10.30
2019-02-17T18:42:16.764Z,10.10
2019-02-17T18:46:22.278Z,10.00
2019-02-17T18:50:28.135Z,9.80
2019-02-17T18:54:37.049Z,9.70
2019-02-17T18:58:42.470Z,9.50
2019-02-17T19:02:48.204Z,9.40
2019-02-17T19:06:53.654Z,9.30
2019-02-17T19:10:59.128Z,9.20
2019-02-17T19:15:04.597Z,9.00
2019-02-17T19:19:10.073Z,8.90
2019-02-17T19:23:15.703Z,9.00
2019-02-17T19:27:21.148Z,8.80
2019-02-17T19:31:26.852Z,8.50
2019-02-17T19:35:41.417Z,8.60
2019-02-17T19:39:39.547Z,8.40
2019-02-17T19:43:44.901Z,8.40
2019-02-17T19:47:50.322Z,8.20
2019-02-17T19:51:55.736Z,8.10
2019-02-17T19:56:00.956Z,8.10
2019-02-17T20:00:10.596Z,7.80
2019-02-17T20:04:28.910Z,7.70
2019-02-17T20:08:34.851Z,7.60
2019-02-17T20:12:40.386Z,7.40
2019-02-17T20:16:45.806Z,7.30
2019-02-17T20:20:51.242Z,7.10
2019-02-17T20:24:56.914Z,7.40
2019-02-17T20:29:02.289Z,7.20
2019-02-17T20:33:08.570Z,7.00
2019-02-17T20:37:13.922Z,7.00
2019-02-17T20:41:19.246Z,7.00
2019-02-17T20:45:24.717Z,7.00
2019-02-17T20:49:30.499Z,6.90
2019-02-17T20:53:36.146Z,6.90
2019-02-17T20:57:41.825Z,6.70
2019-02-17T21:01:47.271Z,6.60
2019-02-17T21:05:52.698Z,6.60
2019-02-17T21:09:58.380Z,6.50
2019-02-17T21:14:03.842Z,6.20
2019-02-17T21:18:09.435Z,6.10
2019-02-17T21:22:14.944Z,6.10
2019-02-17T21:26:25.992Z,5.90
2019-02-17T21:30:27.649Z,5.80
2019-02-17T21:34:32.983Z,5.70
2019-02-17T21:38:38.402Z,5.40
2019-02-17T21:42:43.937Z,5.40
2019-02-17T21:46:49.433Z,5.40
2019-02-17T21:50:54.949Z,5.30
2019-02-17T21:55:00.536Z,5.30
2019-02-17T21:59:05.971Z,5.30
2019-02-17T22:03:11.421Z,5.20
2019-02-17T22:07:16.849Z,5.20
2019-02-17T22:11:22.135Z,5.20
2019-02-17T22:15:27.569Z,5.10
2019-02-17T22:19:32.908Z,5.00
2019-02-17T22:23:40.068Z,4.90
2019-02-17T22:27:45.560Z,4.80
2019-02-17T22:31:50.910Z,4.70
2019-02-17T22:35:56.363Z,4.60
2019-02-17T22:40:01.715Z,4.40
2019-02-17T22:44:07.159Z,4.40
2019-02-17T22:48:12.568Z,4.40
2019-02-17T22:52:18.030Z,4.30
2019-02-17T22:56:23.444Z,4.30
2019-02-17T23:00:59.987Z,4.30
2019-02-17T23:05:05.911Z,4.20
2019-02-17T23:09:11.366Z,4.20
2019-02-17T23:13:17.096Z,4.10
2019-02-17T23:17:22.700Z,4.00
2019-02-17T23:21:28.399Z,3.90
2019-02-17T23:25:33.831Z,3.90
2019-02-17T23:29:39.667Z,3.90
2019-02-17T23:33:45.039Z,3.80
2019-02-17T23:37:50.469Z,3.70
2019-02-17T23:41:55.895Z,3.70
2019-02-17T23:46:01.350Z,3.70
2019-02-17T23:50:07.236Z,3.60
2019-02-17T23:54:12.683Z,3.50
2019-02-17T23:58:18.099Z,3.50
